Weather at Fly Pergamon Sport Airfield

Public forecast

Using degrees Celsius for public forecast. Weather courtesy of forecast.io.

Closest aviation weather report (METAR) to Fly Pergamon Sport Airfield

Closest report is Mytilene International Airport, 25.7 nm (47.7 km) W. Retrieved 2022/01/28 05:20 UTC (15 minutes ago):

LGMT 280520Z VRB03KT 9999 SCT030 04/M05 Q1022

Closest aviation forecast (TAF) to Fly Pergamon Sport Airfield

Forecast is more than 12 hours old.

Closest forecast is Mytilene International Airport, 25.7 nm (47.7 km) W. Retrieved 2012/09/21 03:06 UTC (9 years ago):

TAF LGMT 210200Z 2103/2115 VRB05KT 9999 SCT020 BECMG 2103/2105 30015KT PROB30 TEMPO 2103/2106 7000 RA SCT018 BKN030 BECMG 2107/2109 29012KT